Time;durP1;ratioP1;P1;durP2;ratioP2;P2;SDS_P1;SDS_P2;PMS_P1;PMS_P2;Temp;Humidity;BMP_temperature;BMP_pressure;BME280_temperature;BME280_humidity;BME280_pressure;Samples;Min_cycle;Max_cycle;Signal;HPM_P1;HPM_P2
2022/12/06 00:01:18;;;;;;;2.13;1.40;;;;;;;;;;4887980;29;20032;-84
2022/12/06 00:03:46;;;;;;;2.88;1.20;;;;;;;;;;4888577;29;20036;-83
2022/12/06 00:06:15;;;;;;;1.48;1.10;;;;;;;;;;4888142;29;20450;-84
2022/12/06 00:08:41;;;;;;;1.73;1.20;;;;;;;;;;4888375;29;20037;-82
2022/12/06 00:11:16;;;;;;;1.83;1.10;;;;;;;;;;4888316;29;20039;-84
2022/12/06 00:13:42;;;;;;;2.20;1.30;;;;;;;;;;4905358;29;20073;-83
2022/12/06 00:16:10;;;;;;;1.30;1.17;;;;;;;;;;4888108;29;20044;-84
2022/12/06 00:18:37;;;;;;;1.30;1.08;;;;;;;;;;4903000;29;20069;-83
2022/12/06 00:21:13;;;;;;;1.50;1.17;;;;;;;;;;4919998;29;20041;-83
2022/12/06 00:23:44;;;;;;;1.48;1.10;;;;;;;;;;4905287;29;20041;-83
2022/12/06 00:26:10;;;;;;;1.60;1.17;;;;;;;;;;4887884;29;20033;-82
2022/12/06 00:28:36;;;;;;;1.10;1.00;;;;;;;;;;4888233;29;20124;-83
2022/12/06 00:31:04;;;;;;;1.70;1.30;;;;;;;;;;4905124;29;20039;-83
2022/12/06 00:33:30;;;;;;;1.85;1.30;;;;;;;;;;4903912;29;20059;-84
2022/12/06 00:36:10;;;;;;;1.50;1.20;;;;;;;;;;4903908;29;20099;-83
2022/12/06 00:38:35;;;;;;;2.03;1.30;;;;;;;;;;4888364;29;20068;-82
2022/12/06 00:41:13;;;;;;;1.75;1.27;;;;;;;;;;4888323;29;20033;-84
2022/12/06 00:43:39;;;;;;;1.50;1.20;;;;;;;;;;4907492;29;20044;-83
2022/12/06 00:46:07;;;;;;;3.15;1.20;;;;;;;;;;4908917;29;20052;-82
2022/12/06 00:48:33;;;;;;;1.20;1.10;;;;;;;;;;4891748;29;20104;-83
2022/12/06 00:50:58;;;;;;;1.50;1.10;;;;;;;;;;4908196;29;20727;-83
2022/12/06 00:53:25;;;;;;;1.63;1.00;;;;;;;;;;4908837;29;20037;-83
2022/12/06 00:55:50;;;;;;;2.00;1.00;;;;;;;;;;4891379;29;20036;-83
2022/12/06 00:58:16;;;;;;;0.93;0.82;;;;;;;;;;4908776;29;20092;-82
2022/12/06 01:00:42;;;;;;;1.45;0.80;;;;;;;;;;4909153;29;20067;-81
2022/12/06 01:03:08;;;;;;;1.50;0.80;;;;;;;;;;4906952;29;20044;-84
2022/12/06 01:05:49;;;;;;;1.17;0.80;;;;;;;;;;4908916;29;20060;-83
2022/12/06 01:08:16;;;;;;;2.75;1.10;;;;;;;;;;4891631;29;20056;-84
2022/12/06 01:10:51;;;;;;;0.80;0.80;;;;;;;;;;4891651;29;20068;-83
2022/12/06 01:13:17;;;;;;;0.75;0.70;;;;;;;;;;4908361;29;20041;-84
2022/12/06 01:15:42;;;;;;;1.02;0.88;;;;;;;;;;4907975;29;20029;-84
2022/12/06 01:18:08;;;;;;;1.58;1.00;;;;;;;;;;4923115;29;20032;-84
2022/12/06 01:20:33;;;;;;;1.55;1.05;;;;;;;;;;4908135;29;20557;-83
2022/12/06 01:22:59;;;;;;;1.30;1.05;;;;;;;;;;4908210;29;20076;-84
2022/12/06 01:25:24;;;;;;;2.03;1.48;;;;;;;;;;4875362;29;20040;-84
2022/12/06 01:27:50;;;;;;;1.45;1.20;;;;;;;;;;4908302;29;20035;-82
2022/12/06 01:30:15;;;;;;;1.40;1.10;;;;;;;;;;4891195;29;20059;-83
2022/12/06 01:32:41;;;;;;;1.60;1.10;;;;;;;;;;4908086;29;20048;-83
2022/12/06 01:35:06;;;;;;;2.10;1.50;;;;;;;;;;4890581;29;20168;-83
2022/12/06 01:37:32;;;;;;;2.33;1.60;;;;;;;;;;4891305;29;20040;-83
2022/12/06 01:39:57;;;;;;;1.85;1.50;;;;;;;;;;4891700;29;20037;-84
2022/12/06 01:42:23;;;;;;;2.80;1.83;;;;;;;;;;4891464;29;20041;-84
2022/12/06 01:44:52;;;;;;;2.08;1.50;;;;;;;;;;4907296;29;20048;-82
2022/12/06 01:47:22;;;;;;;1.88;1.38;;;;;;;;;;4890495;29;20041;-82
2022/12/06 01:50:01;;;;;;;2.25;1.30;;;;;;;;;;4907704;29;20489;-84
2022/12/06 01:52:50;;;;;;;1.60;1.30;;;;;;;;;;4906138;29;20036;-82
2022/12/06 01:55:17;;;;;;;3.30;1.27;;;;;;;;;;4889580;29;20037;-83
2022/12/06 01:57:43;;;;;;;2.17;1.58;;;;;;;;;;4889853;29;20080;-84
2022/12/06 02:00:09;;;;;;;1.75;1.27;;;;;;;;;;4907732;29;20040;-82
2022/12/06 02:02:37;;;;;;;1.98;1.10;;;;;;;;;;4906019;29;20241;-83
2022/12/06 02:05:03;;;;;;;1.67;1.20;;;;;;;;;;4906971;29;20040;-84
2022/12/06 02:07:30;;;;;;;2.28;1.25;;;;;;;;;;4907470;29;20075;-83
2022/12/06 02:09:56;;;;;;;2.40;1.23;;;;;;;;;;4874101;29;20135;-82
2022/12/06 02:12:21;;;;;;;2.00;1.23;;;;;;;;;;4906853;29;20067;-84
2022/12/06 02:14:50;;;;;;;1.45;1.20;;;;;;;;;;4889723;29;20028;-83
2022/12/06 02:17:31;;;;;;;1.67;1.27;;;;;;;;;;4889916;29;20051;-83
2022/12/06 02:19:59;;;;;;;1.67;1.38;;;;;;;;;;4907229;29;20037;-82
2022/12/06 02:22:39;;;;;;;2.92;1.38;;;;;;;;;;4890497;29;20040;-84
2022/12/06 02:25:33;;;;;;;3.15;1.13;;;;;;;;;;4907866;29;20044;-83
2022/12/06 02:28:01;;;;;;;1.58;1.30;;;;;;;;;;4907743;29;20230;-83
2022/12/06 02:30:51;;;;;;;2.03;1.52;;;;;;;;;;4906973;29;20084;-83
2022/12/06 02:33:28;;;;;;;1.25;1.10;;;;;;;;;;4908012;29;20112;-83
2022/12/06 02:36:06;;;;;;;1.90;1.40;;;;;;;;;;4889802;29;20494;-83
2022/12/06 02:38:34;;;;;;;2.05;1.40;;;;;;;;;;4905034;29;20489;-82
2022/12/06 02:41:08;;;;;;;1.80;1.35;;;;;;;;;;4874821;29;20051;-84
2022/12/06 02:43:44;;;;;;;1.60;1.30;;;;;;;;;;4889724;29;20092;-83
2022/12/06 02:46:12;;;;;;;1.90;1.30;;;;;;;;;;4889610;29;20105;-83
2022/12/06 02:48:40;;;;;;;1.58;1.30;;;;;;;;;;4906552;29;20043;-82
2022/12/06 02:51:11;;;;;;;1.48;1.27;;;;;;;;;;4906634;29;20111;-83
2022/12/06 02:53:39;;;;;;;2.25;1.38;;;;;;;;;;4907135;29;20043;-83
2022/12/06 02:56:06;;;;;;;1.77;1.33;;;;;;;;;;4889359;29;20036;-82
2022/12/06 02:58:36;;;;;;;2.25;1.50;;;;;;;;;;4906203;29;20044;-83
2022/12/06 03:01:11;;;;;;;1.80;1.40;;;;;;;;;;4907022;29;20040;-84
2022/12/06 03:04:12;;;;;;;1.98;1.48;;;;;;;;;;4889361;29;20036;-83
2022/12/06 03:07:16;;;;;;;2.50;1.50;;;;;;;;;;4873006;29;20512;-83
2022/12/06 03:09:44;;;;;;;1.73;1.15;;;;;;;;;;4845650;29;20049;-83
2022/12/06 03:12:28;;;;;;;2.45;1.15;;;;;;;;;;4905570;29;20036;-83
2022/12/06 03:15:05;;;;;;;1.98;1.23;;;;;;;;;;4904959;29;20139;-83
2022/12/06 03:17:37;;;;;;;1.92;1.15;;;;;;;;;;4889006;29;20036;-84
2022/12/06 03:20:10;;;;;;;2.17;1.42;;;;;;;;;;4888623;29;20084;-84
2022/12/06 03:22:38;;;;;;;;;;;;;;;;;;4906882;29;20036;-83
2022/12/06 03:25:04;;;;;;;1.90;1.30;;;;;;;;;;4905011;29;19940;-83
2022/12/06 03:27:31;;;;;;;2.10;1.40;;;;;;;;;;4873164;29;20113;-84
2022/12/06 03:30:02;;;;;;;2.08;1.40;;;;;;;;;;4888813;29;20485;-83
2022/12/06 03:32:31;;;;;;;1.85;1.52;;;;;;;;;;4905565;29;20044;-83
2022/12/06 03:35:02;;;;;;;2.70;1.80;;;;;;;;;;4888386;29;20510;-84
2022/12/06 03:37:30;;;;;;;1.98;1.45;;;;;;;;;;4906157;29;20048;-83
2022/12/06 03:40:05;;;;;;;2.28;1.60;;;;;;;;;;4889245;29;20441;-83
2022/12/06 03:42:30;;;;;;;2.75;1.30;;;;;;;;;;4906369;29;20097;-83
2022/12/06 03:44:58;;;;;;;2.08;1.60;;;;;;;;;;4889480;29;20068;-82
2022/12/06 03:47:49;;;;;;;1.70;1.30;;;;;;;;;;4920658;29;20041;-84
2022/12/06 03:50:38;;;;;;;1.73;1.50;;;;;;;;;;4889877;29;20040;-84
2022/12/06 03:53:03;;;;;;;2.38;1.83;;;;;;;;;;4920826;29;20043;-82
2022/12/06 03:55:29;;;;;;;2.83;1.90;;;;;;;;;;4905792;29;20493;-83
2022/12/06 03:57:54;;;;;;;2.33;1.70;;;;;;;;;;4905954;29;20036;-83
2022/12/06 04:00:20;;;;;;;2.80;1.73;;;;;;;;;;4889338;29;20036;-83
2022/12/06 04:02:45;;;;;;;2.55;1.88;;;;;;;;;;4905327;29;20033;-84
2022/12/06 04:05:11;;;;;;;2.30;1.80;;;;;;;;;;4905920;29;20044;-84
2022/12/06 04:07:37;;;;;;;2.67;1.90;;;;;;;;;;4905484;29;20044;-83
2022/12/06 04:10:03;;;;;;;2.30;1.70;;;;;;;;;;4888303;29;20701;-82
2022/12/06 04:15:15;;;;;;;2.95;2.00;;;;;;;;;;4904933;29;20123;-83
2022/12/06 04:20:27;;;;;;;2.42;1.70;;;;;;;;;;4889235;29;20107;-84
2022/12/06 04:23:05;;;;;;;2.45;2.00;;;;;;;;;;4906138;29;20028;-83
2022/12/06 04:25:35;;;;;;;3.25;2.20;;;;;;;;;;4872781;29;20505;-83
2022/12/06 04:38:58;;;;;;;3.50;2.47;;;;;;;;;;4906141;29;20108;-84
2022/12/06 04:44:08;;;;;;;2.80;2.17;;;;;;;;;;4888744;29;20078;-83
2022/12/06 04:46:34;;;;;;;3.50;2.45;;;;;;;;;;4886739;29;20485;-83
2022/12/06 04:48:59;;;;;;;3.10;2.25;;;;;;;;;;4888589;29;20048;-83
2022/12/06 04:51:25;;;;;;;6.43;3.50;;;;;;;;;;4904849;29;20179;-83
2022/12/06 04:53:50;;;;;;;6.07;3.88;;;;;;;;;;4904887;29;20051;-84
2022/12/06 04:56:16;;;;;;;5.88;3.38;;;;;;;;;;4887442;29;20395;-83
2022/12/06 04:58:42;;;;;;;5.88;3.88;;;;;;;;;;4888845;29;20037;-83
2022/12/06 05:01:07;;;;;;;5.07;3.38;;;;;;;;;;4887742;29;20485;-83
2022/12/06 05:03:33;;;;;;;10.18;5.43;;;;;;;;;;4887205;29;20036;-84
2022/12/06 05:05:58;;;;;;;6.40;4.30;;;;;;;;;;4907235;29;20702;-84
2022/12/06 05:08:24;;;;;;;7.80;4.38;;;;;;;;;;4892200;29;20525;-83
2022/12/06 05:10:49;;;;;;;8.63;4.90;;;;;;;;;;4922654;29;20453;-82
2022/12/06 05:13:16;;;;;;;14.07;7.35;;;;;;;;;;4908001;29;20068;-83
2022/12/06 05:15:59;;;;;;;6.03;4.10;;;;;;;;;;4903408;29;20099;-83
2022/12/06 05:18:25;;;;;;;5.37;3.70;;;;;;;;;;4905413;29;20040;-83
2022/12/06 05:21:00;;;;;;;4.63;3.25;;;;;;;;;;4888446;29;20048;-83
2022/12/06 05:23:25;;;;;;;3.42;2.70;;;;;;;;;;4905112;29;20500;-83
2022/12/06 05:25:57;;;;;;;3.65;2.72;;;;;;;;;;4904842;29;20068;-83
2022/12/06 05:28:22;;;;;;;6.13;4.00;;;;;;;;;;4888041;29;20121;-83
2022/12/06 05:30:47;;;;;;;5.70;3.60;;;;;;;;;;4891194;29;20064;-83
2022/12/06 05:33:13;;;;;;;5.22;3.53;;;;;;;;;;4891650;29;20051;-83
2022/12/06 05:35:39;;;;;;;3.15;2.55;;;;;;;;;;4890362;29;20094;-83
2022/12/06 05:38:04;;;;;;;4.38;3.05;;;;;;;;;;4876816;29;20040;-83
2022/12/06 05:40:29;;;;;;;6.22;3.85;;;;;;;;;;4908758;29;20040;-83
2022/12/06 05:42:55;;;;;;;4.93;3.53;;;;;;;;;;4890506;29;20470;-85
2022/12/06 05:45:21;;;;;;;6.57;3.35;;;;;;;;;;4891372;29;20036;-84
2022/12/06 05:47:46;;;;;;;5.28;3.50;;;;;;;;;;4908051;29;20040;-84
2022/12/06 05:50:12;;;;;;;4.00;2.90;;;;;;;;;;4890967;29;20069;-85
2022/12/06 05:52:37;;;;;;;4.80;3.45;;;;;;;;;;4909102;29;20043;-83
2022/12/06 05:55:03;;;;;;;5.30;3.55;;;;;;;;;;4908129;29;20063;-83
2022/12/06 05:57:28;;;;;;;5.00;3.50;;;;;;;;;;4907594;29;20044;-84
2022/12/06 05:59:54;;;;;;;5.05;3.33;;;;;;;;;;4891092;29;20105;-84
2022/12/06 06:02:19;;;;;;;5.38;3.88;;;;;;;;;;4908080;29;20533;-83
2022/12/06 06:04:45;;;;;;;5.50;3.60;;;;;;;;;;4890829;29;20032;-83
2022/12/06 06:07:10;;;;;;;5.32;3.42;;;;;;;;;;4906572;29;20509;-84
2022/12/06 06:09:36;;;;;;;7.80;3.95;;;;;;;;;;4907918;29;20091;-84
2022/12/06 06:12:01;;;;;;;5.57;3.40;;;;;;;;;;4890528;29;20033;-84
2022/12/06 06:14:27;;;;;;;5.45;3.35;;;;;;;;;;4889990;29;20395;-84
2022/12/06 06:16:52;;;;;;;4.75;3.10;;;;;;;;;;4875024;29;20127;-84
2022/12/06 06:19:18;;;;;;;4.07;3.00;;;;;;;;;;4890946;29;20040;-82
2022/12/06 06:21:43;;;;;;;4.47;2.85;;;;;;;;;;4875867;29;20032;-84
2022/12/06 06:24:09;;;;;;;3.80;2.90;;;;;;;;;;4891104;29;20055;-83
2022/12/06 06:26:34;;;;;;;4.22;3.20;;;;;;;;;;4892063;29;20032;-83
2022/12/06 06:29:00;;;;;;;5.07;3.20;;;;;;;;;;4907889;29;20043;-83
2022/12/06 06:31:25;;;;;;;6.28;4.10;;;;;;;;;;4891510;29;20565;-84
2022/12/06 06:33:51;;;;;;;10.88;4.82;;;;;;;;;;4891478;29;20044;-84
2022/12/06 06:36:16;;;;;;;7.10;4.10;;;;;;;;;;4890883;29;20032;-84
2022/12/06 06:38:41;;;;;;;7.00;3.88;;;;;;;;;;4908683;29;20033;-83
2022/12/06 06:41:07;;;;;;;5.43;3.67;;;;;;;;;;4907695;29;20044;-83
2022/12/06 06:43:32;;;;;;;9.60;4.15;;;;;;;;;;4907287;29;20123;-83
2022/12/06 06:46:05;;;;;;;7.95;4.32;;;;;;;;;;4875299;29;20044;-83
2022/12/06 06:48:34;;;;;;;7.13;4.22;;;;;;;;;;4907196;29;20041;-84
2022/12/06 06:51:10;;;;;;;5.60;3.65;;;;;;;;;;4891022;29;20140;-84
2022/12/06 06:53:36;;;;;;;5.63;3.60;;;;;;;;;;4890874;29;20163;-83
2022/12/06 06:56:02;;;;;;;5.32;3.58;;;;;;;;;;4906797;29;20414;-83
2022/12/06 06:58:28;;;;;;;5.60;3.50;;;;;;;;;;4907456;29;20047;-84
2022/12/06 07:00:55;;;;;;;4.75;3.08;;;;;;;;;;4899252;29;20045;-83
2022/12/06 07:03:22;;;;;;;5.10;3.40;;;;;;;;;;4888043;29;20632;-83
2022/12/06 07:05:52;;;;;;;5.38;3.45;;;;;;;;;;4909239;23;20048;-83
2022/12/06 07:08:18;;;;;;;5.40;3.22;;;;;;;;;;4910226;29;20490;-82
2022/12/06 07:10:47;;;;;;;4.47;3.20;;;;;;;;;;4920302;29;20063;-83
2022/12/06 07:13:15;;;;;;;4.72;3.25;;;;;;;;;;4903455;29;20430;-83
2022/12/06 07:15:40;;;;;;;5.03;3.35;;;;;;;;;;4920239;29;20056;-82
2022/12/06 07:18:06;;;;;;;5.13;3.40;;;;;;;;;;4922140;29;20035;-82
2022/12/06 07:20:31;;;;;;;4.53;3.17;;;;;;;;;;4903502;29;20047;-82
2022/12/06 07:22:57;;;;;;;4.28;3.17;;;;;;;;;;4887822;29;20040;-82
2022/12/06 07:25:22;;;;;;;5.03;2.95;;;;;;;;;;4921721;29;20046;-82
2022/12/06 07:27:48;;;;;;;5.90;2.97;;;;;;;;;;4921529;29;20097;-82
2022/12/06 07:30:13;;;;;;;4.82;3.22;;;;;;;;;;4921723;29;20497;-82
2022/12/06 07:32:39;;;;;;;4.60;3.00;;;;;;;;;;4923270;29;20064;-83
2022/12/06 07:35:05;;;;;;;4.60;3.15;;;;;;;;;;4921707;29;20068;-83
2022/12/06 07:37:30;;;;;;;4.63;3.15;;;;;;;;;;4922867;29;20043;-83
2022/12/06 07:39:55;;;;;;;4.35;3.10;;;;;;;;;;4923050;29;20032;-83
2022/12/06 07:45:07;;;;;;;5.00;3.10;;;;;;;;;;4920794;29;20024;-84
2022/12/06 07:47:38;;;;;;;6.95;3.97;;;;;;;;;;4905285;29;20040;-84
2022/12/06 07:50:07;;;;;;;5.53;3.75;;;;;;;;;;4906325;29;20037;-83
2022/12/06 07:52:35;;;;;;;5.80;3.70;;;;;;;;;;4901533;29;20650;-84
2022/12/06 07:55:01;;;;;;;5.43;3.53;;;;;;;;;;4902508;29;20044;-82
2022/12/06 07:57:27;;;;;;;6.70;4.35;;;;;;;;;;4901488;29;20036;-83
2022/12/06 07:59:54;;;;;;;6.35;4.10;;;;;;;;;;4901552;29;20067;-84
2022/12/06 08:02:24;;;;;;;7.55;4.30;;;;;;;;;;4884460;29;20190;-84
2022/12/06 08:04:50;;;;;;;6.90;4.38;;;;;;;;;;4901758;29;20064;-83
2022/12/06 08:07:16;;;;;;;6.72;4.40;;;;;;;;;;4902963;29;20044;-83
2022/12/06 08:09:41;;;;;;;6.30;4.00;;;;;;;;;;4884435;29;20067;-84
2022/12/06 08:12:07;;;;;;;9.00;4.10;;;;;;;;;;4901063;29;20036;-84
2022/12/06 08:14:33;;;;;;;6.07;4.00;;;;;;;;;;4903043;29;20036;-82
2022/12/06 08:16:59;;;;;;;11.80;5.40;;;;;;;;;;4900388;29;20131;-82
2022/12/06 08:19:24;;;;;;;13.70;5.25;;;;;;;;;;4902431;29;20041;-83
2022/12/06 08:21:50;;;;;;;9.30;5.07;;;;;;;;;;4884819;29;20048;-83
2022/12/06 08:24:16;;;;;;;9.07;4.65;;;;;;;;;;4901598;29;20039;-83
2022/12/06 08:26:41;;;;;;;16.17;7.85;;;;;;;;;;4900163;29;20498;-84
2022/12/06 08:29:07;;;;;;;9.48;5.38;;;;;;;;;;4901739;29;20041;-85
2022/12/06 08:31:33;;;;;;;14.07;6.90;;;;;;;;;;4902260;29;20414;-84
2022/12/06 08:33:59;;;;;;;8.68;4.80;;;;;;;;;;4885737;29;20033;-83
2022/12/06 08:36:26;;;;;;;7.30;4.00;;;;;;;;;;4901870;29;20469;-84
2022/12/06 08:38:52;;;;;;;5.40;3.63;;;;;;;;;;4902450;29;20044;-84
2022/12/06 08:44:03;;;;;;;4.82;3.13;;;;;;;;;;4902474;29;20032;-87
2022/12/06 08:46:30;;;;;;;6.72;3.70;;;;;;;;;;4884069;29;20650;-83
2022/12/06 08:48:55;;;;;;;6.00;3.95;;;;;;;;;;4902489;29;20037;-84
2022/12/06 08:51:21;;;;;;;9.18;4.63;;;;;;;;;;4903010;29;20100;-85
2022/12/06 08:53:47;;;;;;;6.78;4.05;;;;;;;;;;4901252;29;20044;-85
2022/12/06 08:56:12;;;;;;;6.47;4.20;;;;;;;;;;4900947;29;20028;-85
2022/12/06 08:58:38;;;;;;;6.18;3.60;;;;;;;;;;4900757;29;20511;-86
2022/12/06 09:01:19;;;;;;;6.55;3.25;;;;;;;;;;4900457;29;20032;-86
2022/12/06 09:03:44;;;;;;;8.52;4.40;;;;;;;;;;4900706;29;20047;-86
2022/12/06 09:06:10;;;;;;;7.07;3.83;;;;;;;;;;4886514;29;20044;-85
2022/12/06 09:08:36;;;;;;;6.53;4.03;;;;;;;;;;4887219;29;20041;-86
2022/12/06 09:11:03;;;;;;;10.95;6.10;;;;;;;;;;4870989;29;20498;-85
2022/12/06 09:13:28;;;;;;;24.63;12.20;;;;;;;;;;4887074;29;20040;-85
2022/12/06 09:15:54;;;;;;;4.65;3.28;;;;;;;;;;4886418;29;20104;-84
2022/12/06 09:18:19;;;;;;;4.80;3.17;;;;;;;;;;4903745;29;20529;-85
2022/12/06 09:20:45;;;;;;;5.82;3.28;;;;;;;;;;4904291;29;20517;-85
2022/12/06 09:23:10;;;;;;;7.32;3.75;;;;;;;;;;4903821;29;20398;-85
2022/12/06 09:25:36;;;;;;;4.82;3.30;;;;;;;;;;4903511;29;20079;-85
2022/12/06 09:28:02;;;;;;;6.43;3.90;;;;;;;;;;4903686;29;20036;-86
2022/12/06 09:30:27;;;;;;;5.15;3.22;;;;;;;;;;4904099;29;20035;-86
2022/12/06 09:32:53;;;;;;;6.28;3.58;;;;;;;;;;4887984;29;20028;-87
2022/12/06 09:35:20;;;;;;;5.05;3.28;;;;;;;;;;4907203;29;20044;-84
2022/12/06 09:37:46;;;;;;;4.47;3.20;;;;;;;;;;4905461;29;20410;-87
2022/12/06 09:40:39;;;;;;;5.15;3.30;;;;;;;;;;4905007;29;20052;-87
2022/12/06 09:43:11;;;;;;;3.65;2.63;;;;;;;;;;4887539;29;20490;-86
2022/12/06 09:45:58;;;;;;;4.90;3.03;;;;;;;;;;4904367;29;20044;-86
2022/12/06 09:48:26;;;;;;;3.90;2.60;;;;;;;;;;4904062;29;20571;-86
2022/12/06 09:51:01;;;;;;;3.97;2.67;;;;;;;;;;4904631;29;20048;-86
2022/12/06 09:53:51;;;;;;;4.65;3.13;;;;;;;;;;4887389;29;20586;-86
2022/12/06 09:56:44;;;;;;;4.90;2.92;;;;;;;;;;4903940;29;20505;-86
2022/12/06 09:59:15;;;;;;;4.47;3.10;;;;;;;;;;4904026;29;20512;-86
2022/12/06 10:02:05;;;;;;;4.85;3.20;;;;;;;;;;4872020;29;20041;-86
2022/12/06 10:04:36;;;;;;;6.85;4.07;;;;;;;;;;4886187;29;20422;-87
2022/12/06 10:07:23;;;;;;;6.20;3.47;;;;;;;;;;4903251;29;20422;-85
2022/12/06 10:10:26;;;;;;;8.13;5.13;;;;;;;;;;4903822;29;20040;-86
2022/12/06 10:13:01;;;;;;;15.88;8.63;;;;;;;;;;4865359;29;20491;-86
2022/12/06 10:15:55;;;;;;;11.93;6.65;;;;;;;;;;4905877;29;20047;-85
2022/12/06 10:18:29;;;;;;;10.30;5.57;;;;;;;;;;4904441;29;20514;-85
2022/12/06 10:21:28;;;;;;;7.47;4.38;;;;;;;;;;4888721;29;20061;-85
2022/12/06 10:24:25;;;;;;;8.57;5.05;;;;;;;;;;4904144;29;20582;-85
2022/12/06 10:26:53;;;;;;;4.45;2.78;;;;;;;;;;4905339;29;20045;-85
2022/12/06 10:29:21;;;;;;;4.13;2.80;;;;;;;;;;4904170;29;20458;-85
2022/12/06 10:31:50;;;;;;;7.22;2.80;;;;;;;;;;4888334;29;20040;-85
2022/12/06 10:34:25;;;;;;;3.95;2.42;;;;;;;;;;4904653;29;20036;-85
2022/12/06 10:37:03;;;;;;;3.88;2.70;;;;;;;;;;4905065;29;20100;-85
2022/12/06 10:39:45;;;;;;;4.10;2.55;;;;;;;;;;4888397;29;20064;-85
2022/12/06 10:42:18;;;;;;;4.43;2.40;;;;;;;;;;4888453;29;20029;-85
2022/12/06 10:44:58;;;;;;;3.55;2.13;;;;;;;;;;4905678;29;20071;-87
2022/12/06 10:47:40;;;;;;;4.18;2.30;;;;;;;;;;4904730;29;20028;-85
2022/12/06 10:50:29;;;;;;;5.53;2.50;;;;;;;;;;4905320;29;20092;-84
2022/12/06 10:53:00;;;;;;;2.90;2.08;;;;;;;;;;4904304;29;20059;-85
2022/12/06 10:55:39;;;;;;;6.07;3.58;;;;;;;;;;4904361;29;20498;-84
2022/12/06 10:58:40;;;;;;;4.90;2.60;;;;;;;;;;4904366;29;20044;-85
2022/12/06 11:01:10;;;;;;;3.90;2.17;;;;;;;;;;4888445;29;20047;-86
2022/12/06 11:03:43;;;;;;;4.72;3.17;;;;;;;;;;4904749;29;20402;-86
2022/12/06 11:06:33;;;;;;;4.20;2.23;;;;;;;;;;4887459;29;20119;-85
2022/12/06 11:09:18;;;;;;;3.13;2.08;;;;;;;;;;4904818;29;20025;-85
2022/12/06 11:11:44;;;;;;;4.10;2.30;;;;;;;;;;4905319;29;20107;-86
2022/12/06 11:14:15;;;;;;;3.90;2.30;;;;;;;;;;4904666;29;20047;-85
2022/12/06 11:16:58;;;;;;;2.78;1.73;;;;;;;;;;4904552;29;20532;-85
2022/12/06 11:19:38;;;;;;;3.35;2.15;;;;;;;;;;4904435;29;20065;-86
2022/12/06 11:22:22;;;;;;;5.65;2.90;;;;;;;;;;4904659;29;20043;-86
2022/12/06 11:25:01;;;;;;;4.15;2.67;;;;;;;;;;4888316;29;20068;-86
2022/12/06 11:27:35;;;;;;;5.15;3.00;;;;;;;;;;4905084;29;20036;-86
2022/12/06 11:30:01;;;;;;;;;;;;;;;;;;4906051;29;20060;-83
2022/12/06 11:32:27;;;;;;;8.02;4.15;;;;;;;;;;4888730;29;19919;-86
2022/12/06 11:34:55;;;;;;;6.45;4.07;;;;;;;;;;4903636;29;20040;-86
2022/12/06 11:37:23;;;;;;;5.95;2.92;;;;;;;;;;4904405;29;20107;-86
2022/12/06 11:39:53;;;;;;;5.00;2.90;;;;;;;;;;4903889;29;20064;-86
2022/12/06 11:42:25;;;;;;;5.28;3.60;;;;;;;;;;4906291;29;20033;-86
2022/12/06 11:44:59;;;;;;;4.13;3.10;;;;;;;;;;4905995;29;20036;-85
2022/12/06 11:47:25;;;;;;;3.58;2.45;;;;;;;;;;4890120;29;20037;-86
2022/12/06 11:49:54;;;;;;;3.65;2.40;;;;;;;;;;4906323;29;20055;-87
2022/12/06 11:52:19;;;;;;;5.03;2.33;;;;;;;;;;4905377;29;20052;-86
2022/12/06 11:54:58;;;;;;;3.50;2.30;;;;;;;;;;4888567;29;20055;-87
2022/12/06 11:57:34;;;;;;;3.25;2.10;;;;;;;;;;4906140;29;20047;-86
2022/12/06 12:00:05;;;;;;;3.00;2.05;;;;;;;;;;4906443;29;20036;-86
2022/12/06 12:02:38;;;;;;;4.60;2.20;;;;;;;;;;4906832;29;20142;-86
2022/12/06 12:05:13;;;;;;;3.92;2.38;;;;;;;;;;4889194;29;20131;-86
2022/12/06 12:07:40;;;;;;;3.10;1.90;;;;;;;;;;4905634;29;20043;-87
2022/12/06 12:10:25;;;;;;;2.88;2.00;;;;;;;;;;4904333;29;20032;-86
2022/12/06 12:15:35;;;;;;;3.30;1.90;;;;;;;;;;4905799;29;20027;-86
2022/12/06 12:18:02;;;;;;;3.53;2.20;;;;;;;;;;4920906;29;20486;-86
2022/12/06 12:20:38;;;;;;;4.28;2.50;;;;;;;;;;4905905;29;20035;-86
2022/12/06 12:23:28;;;;;;;4.13;2.08;;;;;;;;;;4905870;29;20032;-86
2022/12/06 12:26:11;;;;;;;2.67;1.90;;;;;;;;;;4907395;29;20032;-86
2022/12/06 12:28:37;;;;;;;3.43;2.30;;;;;;;;;;4906960;29;20039;-86
2022/12/06 12:31:20;;;;;;;2.67;1.75;;;;;;;;;;4908347;29;20039;-86
2022/12/06 12:33:46;;;;;;;4.10;2.10;;;;;;;;;;4906191;29;20041;-86
2022/12/06 12:36:27;;;;;;;2.00;1.50;;;;;;;;;;4907691;29;20064;-85
2022/12/06 12:39:01;;;;;;;2.72;1.80;;;;;;;;;;4909404;29;20671;-86
2022/12/06 12:41:37;;;;;;;2.80;2.03;;;;;;;;;;4910591;29;20475;-86
2022/12/06 12:44:04;;;;;;;2.30;1.80;;;;;;;;;;4910169;29;20048;-86
2022/12/06 12:46:34;;;;;;;3.85;1.92;;;;;;;;;;4910064;29;20036;-86
2022/12/06 12:49:22;;;;;;;3.28;1.90;;;;;;;;;;4910435;29;20529;-86
2022/12/06 12:51:48;;;;;;;3.42;2.10;;;;;;;;;;4909941;29;20116;-86
2022/12/06 12:54:24;;;;;;;8.05;3.20;;;;;;;;;;4892315;29;20052;-86
2022/12/06 12:56:51;;;;;;;5.38;3.20;;;;;;;;;;4892702;29;20047;-86
2022/12/06 12:59:22;;;;;;;4.03;2.45;;;;;;;;;;4921627;29;20036;-86
2022/12/06 13:01:51;;;;;;;4.03;2.25;;;;;;;;;;4907990;29;20036;-86
2022/12/06 13:04:40;;;;;;;3.63;2.30;;;;;;;;;;4909375;29;20044;-86
2022/12/06 13:07:09;;;;;;;3.90;2.35;;;;;;;;;;4929339;23;20048;-83
2022/12/06 13:10:00;;;;;;;5.10;2.50;;;;;;;;;;4906267;29;20040;-83
2022/12/06 13:12:40;;;;;;;5.03;3.00;;;;;;;;;;4889690;29;20072;-84
2022/12/06 13:15:24;;;;;;;3.90;2.40;;;;;;;;;;4888540;29;20060;-84
2022/12/06 13:17:55;;;;;;;4.88;2.30;;;;;;;;;;4906616;29;20040;-83
2022/12/06 13:20:29;;;;;;;5.90;2.92;;;;;;;;;;4892230;29;20044;-84
2022/12/06 13:23:07;;;;;;;3.35;2.15;;;;;;;;;;4914399;29;20032;-83
2022/12/06 13:25:32;;;;;;;3.30;2.28;;;;;;;;;;4892853;29;20063;-81
2022/12/06 13:28:01;;;;;;;6.00;2.80;;;;;;;;;;4896549;29;20036;-83
2022/12/06 13:30:29;;;;;;;11.20;4.35;;;;;;;;;;4891319;29;20043;-83
2022/12/06 13:33:01;;;;;;;8.48;3.75;;;;;;;;;;4896822;29;20119;-83
2022/12/06 13:35:30;;;;;;;10.18;4.60;;;;;;;;;;4910415;29;20056;-84
2022/12/06 13:37:56;;;;;;;9.52;4.60;;;;;;;;;;4914414;29;20092;-84
2022/12/06 13:41:01;;;;;;;12.50;5.10;;;;;;;;;;4922257;29;20048;-83
2022/12/06 13:43:26;;;;;;;8.68;4.18;;;;;;;;;;4848694;29;20531;-84
2022/12/06 13:46:11;;;;;;;10.57;4.57;;;;;;;;;;4848177;29;20048;-83
2022/12/06 13:48:56;;;;;;;7.95;4.22;;;;;;;;;;4883849;29;20099;-82
2022/12/06 13:51:31;;;;;;;4.35;2.53;;;;;;;;;;4905341;29;20562;-83
2022/12/06 13:54:05;;;;;;;5.97;2.60;;;;;;;;;;4905318;29;20036;-81
2022/12/06 13:56:31;;;;;;;4.80;2.53;;;;;;;;;;4906188;29;20047;-84
2022/12/06 13:58:58;;;;;;;3.83;2.55;;;;;;;;;;4922907;29;20028;-83
2022/12/06 14:01:39;;;;;;;5.78;2.45;;;;;;;;;;4922855;29;20036;-83
2022/12/06 14:04:23;;;;;;;5.97;2.88;;;;;;;;;;4905402;29;20032;-83
2022/12/06 14:07:10;;;;;;;4.13;2.70;;;;;;;;;;4922610;29;20103;-83
2022/12/06 14:09:43;;;;;;;5.68;3.53;;;;;;;;;;4905367;29;20147;-83
2022/12/06 14:12:28;;;;;;;5.78;3.08;;;;;;;;;;4905775;29;20032;-82
2022/12/06 14:14:59;;;;;;;3.58;2.55;;;;;;;;;;4905276;29;20046;-84
2022/12/06 14:17:39;;;;;;;4.00;2.63;;;;;;;;;;4922326;29;20487;-82
2022/12/06 14:20:26;;;;;;;3.35;2.20;;;;;;;;;;4922234;29;20521;-84
2022/12/06 14:22:52;;;;;;;6.05;2.70;;;;;;;;;;4921788;29;20462;-83
2022/12/06 14:25:24;;;;;;;4.00;2.55;;;;;;;;;;4923006;29;20046;-82
2022/12/06 14:27:59;;;;;;;5.22;2.53;;;;;;;;;;4922154;29;20127;-83
2022/12/06 14:30:25;;;;;;;2.90;2.10;;;;;;;;;;4905648;29;20573;-84
2022/12/06 14:32:56;;;;;;;4.88;2.10;;;;;;;;;;4905200;29;20076;-82
2022/12/06 14:35:35;;;;;;;5.95;2.30;;;;;;;;;;4923031;29;20075;-83
2022/12/06 14:38:17;;;;;;;3.00;2.10;;;;;;;;;;4890131;29;20052;-84
2022/12/06 14:43:29;;;;;;;5.63;3.28;;;;;;;;;;4921578;29;20059;-83
2022/12/06 14:45:56;;;;;;;5.22;3.30;;;;;;;;;;4905146;29;20039;-83
2022/12/06 14:48:23;;;;;;;4.55;2.70;;;;;;;;;;4904476;29;20095;-84
2022/12/06 14:50:51;;;;;;;4.60;2.70;;;;;;;;;;4887109;29;20189;-82
2022/12/06 14:53:31;;;;;;;4.18;2.78;;;;;;;;;;4903856;29;20095;-84
2022/12/06 14:56:04;;;;;;;5.50;2.38;;;;;;;;;;4907738;29;20481;-84
2022/12/06 14:58:35;;;;;;;4.40;2.70;;;;;;;;;;4889840;29;20036;-83
2022/12/06 15:01:05;;;;;;;6.97;3.13;;;;;;;;;;4905110;29;20645;-83
2022/12/06 15:03:31;;;;;;;6.93;2.85;;;;;;;;;;4921002;29;20032;-84
2022/12/06 15:06:12;;;;;;;4.40;2.63;;;;;;;;;;4905029;29;20034;-83
2022/12/06 15:08:43;;;;;;;3.88;2.20;;;;;;;;;;4921448;29;20036;-84
2022/12/06 15:11:12;;;;;;;4.05;2.35;;;;;;;;;;4922145;29;20040;-84
2022/12/06 15:13:40;;;;;;;3.50;2.28;;;;;;;;;;4921279;29;20374;-84
2022/12/06 15:16:09;;;;;;;3.58;2.40;;;;;;;;;;4904849;29;20040;-85
2022/12/06 15:18:40;;;;;;;4.20;2.58;;;;;;;;;;4921521;29;20066;-84
2022/12/06 15:21:14;;;;;;;6.28;3.22;;;;;;;;;;4921673;29;20079;-84
2022/12/06 15:23:47;;;;;;;4.80;2.70;;;;;;;;;;4921428;29;20032;-83
2022/12/06 15:26:13;;;;;;;;;;;;;;;;;;4889744;29;20040;-84
2022/12/06 15:28:39;;;;;;;4.05;2.30;;;;;;;;;;4922893;29;20005;-82
2022/12/06 15:31:12;;;;;;;4.22;2.33;;;;;;;;;;4906123;29;20039;-85
2022/12/06 15:33:37;;;;;;;4.38;2.80;;;;;;;;;;4905982;29;20399;-85
2022/12/06 15:36:04;;;;;;;5.45;3.30;;;;;;;;;;4923120;29;20494;-84